sensor_id;sensor_type;location;lat;lon;timestamp;P1;P2;P0
69746;PMS7003;57018;50.278;19.134;2024-03-25T00:00:47;18.00;17.50;13.00
69746;PMS7003;57018;50.278;19.134;2024-03-25T00:03:17;15.33;14.00;10.33
69746;PMS7003;57018;50.278;19.134;2024-03-25T00:05:47;16.00;16.00;10.00
69746;PMS7003;57018;50.278;19.134;2024-03-25T00:08:16;16.50;16.50;12.00
69746;PMS7003;57018;50.278;19.134;2024-03-25T00:10:46;18.00;18.00;13.00
69746;PMS7003;57018;50.278;19.134;2024-03-25T00:13:16;20.00;18.50;12.75
69746;PMS7003;57018;50.278;19.134;2024-03-25T00:15:47;23.50;18.00;12.50
69746;PMS7003;57018;50.278;19.134;2024-03-25T00:18:17;17.00;17.00;11.00
69746;PMS7003;57018;50.278;19.134;2024-03-25T00:20:47;24.00;19.00;12.00
69746;PMS7003;57018;50.278;19.134;2024-03-25T00:23:18;15.50;15.50;10.50
69746;PMS7003;57018;50.278;19.134;2024-03-25T00:25:48;16.00;16.00;12.50
69746;PMS7003;57018;50.278;19.134;2024-03-25T00:28:18;17.00;15.50;10.50
69746;PMS7003;57018;50.278;19.134;2024-03-25T00:30:48;18.00;17.00;10.00
69746;PMS7003;57018;50.278;19.134;2024-03-25T00:33:18;17.50;17.50;12.50
69746;PMS7003;57018;50.278;19.134;2024-03-25T00:35:49;18.00;15.00;9.00
69746;PMS7003;57018;50.278;19.134;2024-03-25T00:38:19;14.00;12.00;8.00
69746;PMS7003;57018;50.278;19.134;2024-03-25T00:40:49;12.67;12.67;9.00
69746;PMS7003;57018;50.278;19.134;2024-03-25T00:43:20;15.00;13.50;8.50
69746;PMS7003;57018;50.278;19.134;2024-03-25T00:45:50;8.50;8.50;7.00
69746;PMS7003;57018;50.278;19.134;2024-03-25T00:48:19;14.00;13.00;8.00
69746;PMS7003;57018;50.278;19.134;2024-03-25T00:50:49;11.00;11.00;7.00
69746;PMS7003;57018;50.278;19.134;2024-03-25T00:53:19;12.00;12.00;8.00
69746;PMS7003;57018;50.278;19.134;2024-03-25T00:55:50;11.00;11.00;8.00
69746;PMS7003;57018;50.278;19.134;2024-03-25T00:58:20;12.33;10.67;7.00
69746;PMS7003;57018;50.278;19.134;2024-03-25T01:00:50;9.00;9.00;7.00
69746;PMS7003;57018;50.278;19.134;2024-03-25T01:03:20;15.00;12.00;7.00
69746;PMS7003;57018;50.278;19.134;2024-03-25T01:05:50;11.00;11.00;7.50
69746;PMS7003;57018;50.278;19.134;2024-03-25T01:08:20;16.00;11.50;7.00
69746;PMS7003;57018;50.278;19.134;2024-03-25T01:10:50;13.50;11.00;7.00
69746;PMS7003;57018;50.278;19.134;2024-03-25T01:13:20;11.00;11.00;7.00
69746;PMS7003;57018;50.278;19.134;2024-03-25T01:15:49;8.00;7.67;6.67
69746;PMS7003;57018;50.278;19.134;2024-03-25T01:18:19;8.00;8.00;7.00
69746;PMS7003;57018;50.278;19.134;2024-03-25T01:20:49;11.50;11.00;7.00
69746;PMS7003;57018;50.278;19.134;2024-03-25T01:23:19;8.00;7.00;4.00
69746;PMS7003;57018;50.278;19.134;2024-03-25T01:25:49;10.00;10.00;6.50
69746;PMS7003;57018;50.278;19.134;2024-03-25T01:28:19;12.33;10.33;7.00
69746;PMS7003;57018;50.278;19.134;2024-03-25T01:30:49;9.00;9.00;7.00
69746;PMS7003;57018;50.278;19.134;2024-03-25T01:33:19;9.00;9.00;6.50
69746;PMS7003;57018;50.278;19.134;2024-03-25T01:35:49;9.00;9.00;7.00
69746;PMS7003;57018;50.278;19.134;2024-03-25T01:38:19;7.50;7.50;5.00
69746;PMS7003;57018;50.278;19.134;2024-03-25T01:40:48;8.00;7.00;5.00
69746;PMS7003;57018;50.278;19.134;2024-03-25T01:43:21;11.00;11.00;6.00
69746;PMS7003;57018;50.278;19.134;2024-03-25T01:45:51;11.00;10.50;5.50
69746;PMS7003;57018;50.278;19.134;2024-03-25T01:48:23;12.00;8.00;5.00
69746;PMS7003;57018;50.278;19.134;2024-03-25T01:50:53;8.00;7.00;6.00
69746;PMS7003;57018;50.278;19.134;2024-03-25T01:55:54;7.00;6.00;6.00
69746;PMS7003;57018;50.278;19.134;2024-03-25T01:58:26;13.00;9.50;7.00
69746;PMS7003;57018;50.278;19.134;2024-03-25T02:00:57;12.00;11.00;7.00
69746;PMS7003;57018;50.278;19.134;2024-03-25T02:03:29;12.00;12.00;7.00
69746;PMS7003;57018;50.278;19.134;2024-03-25T02:05:59;16.00;11.50;7.50
69746;PMS7003;57018;50.278;19.134;2024-03-25T02:08:32;19.50;13.00;8.00
69746;PMS7003;57018;50.278;19.134;2024-03-25T02:11:04;11.00;11.00;8.00
69746;PMS7003;57018;50.278;19.134;2024-03-25T02:13:34;13.50;12.50;7.00
69746;PMS7003;57018;50.278;19.134;2024-03-25T02:16:05;10.00;9.33;6.00
69746;PMS7003;57018;50.278;19.134;2024-03-25T02:18:36;9.00;7.67;6.33
69746;PMS7003;57018;50.278;19.134;2024-03-25T02:21:06;10.00;10.00;6.00
69746;PMS7003;57018;50.278;19.134;2024-03-25T02:23:36;11.00;9.00;7.00
69746;PMS7003;57018;50.278;19.134;2024-03-25T02:26:10;12.00;10.00;6.00
69746;PMS7003;57018;50.278;19.134;2024-03-25T02:28:40;15.00;12.00;8.00
69746;PMS7003;57018;50.278;19.134;2024-03-25T02:31:10;12.00;10.00;7.50
69746;PMS7003;57018;50.278;19.134;2024-03-25T02:33:40;12.00;12.00;8.00
69746;PMS7003;57018;50.278;19.134;2024-03-25T02:36:10;17.00;13.00;8.00
69746;PMS7003;57018;50.278;19.134;2024-03-25T02:38:39;11.50;11.50;9.50
69746;PMS7003;57018;50.278;19.134;2024-03-25T02:41:10;11.33;11.00;8.00
69746;PMS7003;57018;50.278;19.134;2024-03-25T02:43:42;15.00;15.00;11.00
69746;PMS7003;57018;50.278;19.134;2024-03-25T02:46:12;17.00;15.00;11.00
69746;PMS7003;57018;50.278;19.134;2024-03-25T02:48:42;14.00;14.00;8.00
69746;PMS7003;57018;50.278;19.134;2024-03-25T02:51:13;10.00;10.00;8.00
69746;PMS7003;57018;50.278;19.134;2024-03-25T02:53:43;16.00;13.00;10.00
69746;PMS7003;57018;50.278;19.134;2024-03-25T02:56:13;15.00;13.00;10.00
69746;PMS7003;57018;50.278;19.134;2024-03-25T02:58:43;15.00;14.50;8.50
69746;PMS7003;57018;50.278;19.134;2024-03-25T03:01:15;15.00;11.00;8.00
69746;PMS7003;57018;50.278;19.134;2024-03-25T03:03:46;13.00;12.00;11.00
69746;PMS7003;57018;50.278;19.134;2024-03-25T03:06:15;17.00;13.00;11.00
69746;PMS7003;57018;50.278;19.134;2024-03-25T03:08:46;22.50;17.50;12.00
69746;PMS7003;57018;50.278;19.134;2024-03-25T03:11:16;16.50;14.00;9.00
69746;PMS7003;57018;50.278;19.134;2024-03-25T03:13:46;16.50;12.50;7.50
69746;PMS7003;57018;50.278;19.134;2024-03-25T03:16:16;12.67;12.67;9.33
69746;PMS7003;57018;50.278;19.134;2024-03-25T03:18:45;17.33;16.67;11.00
69746;PMS7003;57018;50.278;19.134;2024-03-25T03:21:15;20.50;16.00;11.00
69746;PMS7003;57018;50.278;19.134;2024-03-25T03:23:45;13.33;11.67;8.33
69746;PMS7003;57018;50.278;19.134;2024-03-25T03:26:14;14.50;14.50;8.50
69746;PMS7003;57018;50.278;19.134;2024-03-25T03:28:44;16.50;15.00;9.50
69746;PMS7003;57018;50.278;19.134;2024-03-25T03:31:14;14.50;13.00;9.00
69746;PMS7003;57018;50.278;19.134;2024-03-25T03:33:43;19.00;14.50;10.00
69746;PMS7003;57018;50.278;19.134;2024-03-25T03:36:13;18.00;15.00;8.33
69746;PMS7003;57018;50.278;19.134;2024-03-25T03:38:44;12.50;12.00;8.00
69746;PMS7003;57018;50.278;19.134;2024-03-25T03:41:14;15.00;15.00;10.00
69746;PMS7003;57018;50.278;19.134;2024-03-25T03:43:43;17.00;15.00;11.00
69746;PMS7003;57018;50.278;19.134;2024-03-25T03:46:13;18.00;18.00;12.00
69746;PMS7003;57018;50.278;19.134;2024-03-25T03:48:43;19.00;17.00;11.50
69746;PMS7003;57018;50.278;19.134;2024-03-25T03:51:13;20.00;14.50;10.50
69746;PMS7003;57018;50.278;19.134;2024-03-25T03:53:43;15.00;14.00;11.00
69746;PMS7003;57018;50.278;19.134;2024-03-25T03:56:13;19.00;14.00;11.00
69746;PMS7003;57018;50.278;19.134;2024-03-25T03:58:43;18.50;13.50;8.50
69746;PMS7003;57018;50.278;19.134;2024-03-25T04:01:16;17.00;14.00;10.00
69746;PMS7003;57018;50.278;19.134;2024-03-25T04:03:46;13.00;13.00;8.00
69746;PMS7003;57018;50.278;19.134;2024-03-25T04:06:16;21.00;17.00;10.00
69746;PMS7003;57018;50.278;19.134;2024-03-25T04:08:46;14.00;14.00;10.00
69746;PMS7003;57018;50.278;19.134;2024-03-25T04:11:16;13.67;12.33;8.33
69746;PMS7003;57018;50.278;19.134;2024-03-25T04:13:47;16.00;11.00;7.00
69746;PMS7003;57018;50.278;19.134;2024-03-25T04:16:17;18.00;14.00;9.00
69746;PMS7003;57018;50.278;19.134;2024-03-25T04:18:48;13.00;12.50;8.00
69746;PMS7003;57018;50.278;19.134;2024-03-25T04:21:18;13.00;11.00;8.00
69746;PMS7003;57018;50.278;19.134;2024-03-25T04:23:48;14.00;11.50;8.00
69746;PMS7003;57018;50.278;19.134;2024-03-25T04:26:17;12.00;12.00;7.50
69746;PMS7003;57018;50.278;19.134;2024-03-25T04:28:47;18.50;16.00;12.00
69746;PMS7003;57018;50.278;19.134;2024-03-25T04:31:17;15.50;15.00;9.00
69746;PMS7003;57018;50.278;19.134;2024-03-25T04:33:47;16.00;13.50;10.00
69746;PMS7003;57018;50.278;19.134;2024-03-25T04:36:17;17.00;13.00;11.00
69746;PMS7003;57018;50.278;19.134;2024-03-25T04:38:47;14.00;14.00;8.00
69746;PMS7003;57018;50.278;19.134;2024-03-25T04:41:17;12.50;11.00;8.00
69746;PMS7003;57018;50.278;19.134;2024-03-25T04:43:47;13.00;12.00;8.00
69746;PMS7003;57018;50.278;19.134;2024-03-25T04:46:17;8.00;8.00;6.00
69746;PMS7003;57018;50.278;19.134;2024-03-25T04:48:47;10.00;10.00;7.33
69746;PMS7003;57018;50.278;19.134;2024-03-25T04:51:17;12.50;11.50;8.00
69746;PMS7003;57018;50.278;19.134;2024-03-25T04:53:48;7.50;7.50;6.00
69746;PMS7003;57018;50.278;19.134;2024-03-25T04:56:18;15.50;12.00;7.50
69746;PMS7003;57018;50.278;19.134;2024-03-25T04:58:48;12.00;12.00;8.00
69746;PMS7003;57018;50.278;19.134;2024-03-25T05:01:18;12.00;11.00;7.50
69746;PMS7003;57018;50.278;19.134;2024-03-25T05:03:48;12.00;12.00;9.00
69746;PMS7003;57018;50.278;19.134;2024-03-25T05:06:17;10.00;8.00;7.00
69746;PMS7003;57018;50.278;19.134;2024-03-25T05:08:47;12.50;12.50;8.00
69746;PMS7003;57018;50.278;19.134;2024-03-25T05:11:17;12.00;11.00;8.00
69746;PMS7003;57018;50.278;19.134;2024-03-25T05:13:47;13.00;12.00;8.67
69746;PMS7003;57018;50.278;19.134;2024-03-25T05:16:17;14.00;12.00;8.00
69746;PMS7003;57018;50.278;19.134;2024-03-25T05:18:47;13.00;13.00;8.00
69746;PMS7003;57018;50.278;19.134;2024-03-25T05:21:17;12.00;11.00;8.00
69746;PMS7003;57018;50.278;19.134;2024-03-25T05:23:46;16.00;14.00;10.00
69746;PMS7003;57018;50.278;19.134;2024-03-25T05:26:16;14.00;12.50;7.50
69746;PMS7003;57018;50.278;19.134;2024-03-25T05:28:46;13.50;12.00;8.00
69746;PMS7003;57018;50.278;19.134;2024-03-25T05:31:20;19.00;18.00;12.00
69746;PMS7003;57018;50.278;19.134;2024-03-25T05:33:50;19.00;18.00;12.00
69746;PMS7003;57018;50.278;19.134;2024-03-25T05:36:20;23.00;22.00;16.00
69746;PMS7003;57018;50.278;19.134;2024-03-25T05:38:50;24.33;24.33;17.67
69746;PMS7003;57018;50.278;19.134;2024-03-25T05:41:20;17.50;15.50;12.50
69746;PMS7003;57018;50.278;19.134;2024-03-25T05:43:50;14.00;13.00;9.00
69746;PMS7003;57018;50.278;19.134;2024-03-25T05:46:22;16.00;16.00;11.00
69746;PMS7003;57018;50.278;19.134;2024-03-25T05:48:52;14.00;12.00;7.00
69746;PMS7003;57018;50.278;19.134;2024-03-25T05:53:50;20.00;16.50;9.50
69746;PMS7003;57018;50.278;19.134;2024-03-25T05:56:20;18.00;17.00;10.00
69746;PMS7003;57018;50.278;19.134;2024-03-25T05:58:51;17.00;14.33;9.00
69746;PMS7003;57018;50.278;19.134;2024-03-25T06:01:22;17.67;15.00;8.67
69746;PMS7003;57018;50.278;19.134;2024-03-25T06:03:52;19.00;16.50;10.50
69746;PMS7003;57018;50.278;19.134;2024-03-25T06:06:22;14.00;14.00;9.50
69746;PMS7003;57018;50.278;19.134;2024-03-25T06:08:53;18.50;16.00;9.50
69746;PMS7003;57018;50.278;19.134;2024-03-25T06:11:26;21.00;19.00;14.00
69746;PMS7003;57018;50.278;19.134;2024-03-25T06:13:56;22.50;19.00;13.50
69746;PMS7003;57018;50.278;19.134;2024-03-25T06:16:26;22.33;19.67;14.00
69746;PMS7003;57018;50.278;19.134;2024-03-25T06:18:56;24.50;21.50;14.00
69746;PMS7003;57018;50.278;19.134;2024-03-25T06:21:26;24.00;22.00;14.00
69746;PMS7003;57018;50.278;19.134;2024-03-25T06:23:57;26.00;18.50;11.50
69746;PMS7003;57018;50.278;19.134;2024-03-25T06:26:27;19.50;17.00;13.00
69746;PMS7003;57018;50.278;19.134;2024-03-25T06:28:57;21.00;17.00;10.00
69746;PMS7003;57018;50.278;19.134;2024-03-25T06:31:28;21.00;21.00;14.00
69746;PMS7003;57018;50.278;19.134;2024-03-25T06:34:15;23.00;18.50;14.00
69746;PMS7003;57018;50.278;19.134;2024-03-25T06:36:45;20.50;16.00;10.00
69746;PMS7003;57018;50.278;19.134;2024-03-25T06:39:15;21.50;19.00;11.00
69746;PMS7003;57018;50.278;19.134;2024-03-25T06:41:45;19.00;16.00;10.00
69746;PMS7003;57018;50.278;19.134;2024-03-25T06:44:15;21.67;18.33;11.00
69746;PMS7003;57018;50.278;19.134;2024-03-25T06:46:45;21.50;18.00;10.00
69746;PMS7003;57018;50.278;19.134;2024-03-25T06:49:15;18.00;15.00;10.00
69746;PMS7003;57018;50.278;19.134;2024-03-25T06:51:44;15.00;14.00;9.50
69746;PMS7003;57018;50.278;19.134;2024-03-25T06:54:14;16.33;15.67;12.00
69746;PMS7003;57018;50.278;19.134;2024-03-25T06:56:44;23.00;18.00;11.50
69746;PMS7003;57018;50.278;19.134;2024-03-25T06:59:14;17.00;17.00;11.00
69746;PMS7003;57018;50.278;19.134;2024-03-25T07:01:44;22.50;18.00;14.00
69746;PMS7003;57018;50.278;19.134;2024-03-25T07:04:14;18.50;18.50;12.50
69746;PMS7003;57018;50.278;19.134;2024-03-25T07:06:44;17.50;14.00;9.00
69746;PMS7003;57018;50.278;19.134;2024-03-25T07:09:14;17.00;15.50;9.50
69746;PMS7003;57018;50.278;19.134;2024-03-25T07:11:44;20.00;19.00;12.00
69746;PMS7003;57018;50.278;19.134;2024-03-25T07:14:15;22.50;21.00;16.00
69746;PMS7003;57018;50.278;19.134;2024-03-25T07:16:45;18.00;15.00;10.00
69746;PMS7003;57018;50.278;19.134;2024-03-25T07:19:14;17.00;14.00;10.00
69746;PMS7003;57018;50.278;19.134;2024-03-25T07:21:44;15.00;13.50;10.00
69746;PMS7003;57018;50.278;19.134;2024-03-25T07:24:14;17.00;14.00;8.00
69746;PMS7003;57018;50.278;19.134;2024-03-25T07:26:44;17.00;15.00;10.00
69746;PMS7003;57018;50.278;19.134;2024-03-25T07:29:15;19.00;13.00;9.00
69746;PMS7003;57018;50.278;19.134;2024-03-25T07:31:45;11.00;11.00;8.00
69746;PMS7003;57018;50.278;19.134;2024-03-25T07:34:17;12.00;11.00;9.00
69746;PMS7003;57018;50.278;19.134;2024-03-25T07:36:47;11.50;11.50;7.50
69746;PMS7003;57018;50.278;19.134;2024-03-25T07:41:45;14.00;12.50;8.50
69746;PMS7003;57018;50.278;19.134;2024-03-25T07:44:15;15.00;15.00;10.00
69746;PMS7003;57018;50.278;19.134;2024-03-25T07:46:45;15.00;15.00;11.00
69746;PMS7003;57018;50.278;19.134;2024-03-25T07:49:15;13.33;12.67;10.00
69746;PMS7003;57018;50.278;19.134;2024-03-25T07:51:45;14.00;14.00;10.00
69746;PMS7003;57018;50.278;19.134;2024-03-25T07:54:15;10.00;9.00;7.00
69746;PMS7003;57018;50.278;19.134;2024-03-25T07:56:46;13.50;11.00;7.50
69746;PMS7003;57018;50.278;19.134;2024-03-25T07:59:16;12.00;12.00;8.33
69746;PMS7003;57018;50.278;19.134;2024-03-25T08:01:46;14.00;14.00;10.00
69746;PMS7003;57018;50.278;19.134;2024-03-25T08:04:16;11.00;11.00;8.00
69746;PMS7003;57018;50.278;19.134;2024-03-25T08:06:46;11.25;11.00;8.00
69746;PMS7003;57018;50.278;19.134;2024-03-25T08:09:16;14.00;10.67;9.00
69746;PMS7003;57018;50.278;19.134;2024-03-25T08:11:47;14.50;11.00;7.50
69746;PMS7003;57018;50.278;19.134;2024-03-25T08:14:19;19.00;19.00;12.00
69746;PMS7003;57018;50.278;19.134;2024-03-25T08:16:50;13.00;13.00;10.00
69746;PMS7003;57018;50.278;19.134;2024-03-25T08:19:20;22.00;15.50;11.00
69746;PMS7003;57018;50.278;19.134;2024-03-25T08:24:18;17.00;14.00;12.00
69746;PMS7003;57018;50.278;19.134;2024-03-25T08:26:48;18.00;15.00;11.50
69746;PMS7003;57018;50.278;19.134;2024-03-25T08:29:17;18.50;16.00;11.00
69746;PMS7003;57018;50.278;19.134;2024-03-25T08:31:47;19.00;17.00;12.00
69746;PMS7003;57018;50.278;19.134;2024-03-25T08:34:17;16.00;14.00;11.50
69746;PMS7003;57018;50.278;19.134;2024-03-25T08:36:47;20.50;17.50;12.50
69746;PMS7003;57018;50.278;19.134;2024-03-25T08:39:17;21.00;19.00;13.00
69746;PMS7003;57018;50.278;19.134;2024-03-25T08:41:49;20.25;20.00;16.00
69746;PMS7003;57018;50.278;19.134;2024-03-25T08:44:18;35.50;30.00;20.00
69746;PMS7003;57018;50.278;19.134;2024-03-25T08:46:48;21.00;19.00;14.00
69746;PMS7003;57018;50.278;19.134;2024-03-25T08:49:19;29.00;27.00;19.00
69746;PMS7003;57018;50.278;19.134;2024-03-25T08:51:49;31.00;28.00;18.50
69746;PMS7003;57018;50.278;19.134;2024-03-25T08:54:21;22.00;21.00;14.00
69746;PMS7003;57018;50.278;19.134;2024-03-25T08:56:51;22.00;20.00;14.00
69746;PMS7003;57018;50.278;19.134;2024-03-25T08:59:21;12.00;9.00;8.00
69746;PMS7003;57018;50.278;19.134;2024-03-25T09:01:51;21.50;18.00;11.00
69746;PMS7003;57018;50.278;19.134;2024-03-25T09:04:21;18.00;18.00;12.00
69746;PMS7003;57018;50.278;19.134;2024-03-25T09:06:56;21.00;21.00;15.00
69746;PMS7003;57018;50.278;19.134;2024-03-25T09:09:26;16.00;16.00;12.00
69746;PMS7003;57018;50.278;19.134;2024-03-25T09:12:13;18.00;16.00;10.00
69746;PMS7003;57018;50.278;19.134;2024-03-25T09:14:43;12.33;10.67;9.33
69746;PMS7003;57018;50.278;19.134;2024-03-25T09:17:13;14.00;13.00;9.00
69746;PMS7003;57018;50.278;19.134;2024-03-25T09:19:44;13.50;13.00;9.00
69746;PMS7003;57018;50.278;19.134;2024-03-25T09:22:14;12.00;12.00;9.00
69746;PMS7003;57018;50.278;19.134;2024-03-25T09:24:44;12.00;11.00;6.50
69746;PMS7003;57018;50.278;19.134;2024-03-25T09:27:14;11.00;11.00;8.50
69746;PMS7003;57018;50.278;19.134;2024-03-25T09:29:44;12.50;11.00;9.00
69746;PMS7003;57018;50.278;19.134;2024-03-25T09:32:14;12.00;12.00;9.50
69746;PMS7003;57018;50.278;19.134;2024-03-25T09:34:44;13.33;12.00;9.33
69746;PMS7003;57018;50.278;19.134;2024-03-25T09:37:17;11.50;11.00;8.00
69746;PMS7003;57018;50.278;19.134;2024-03-25T09:39:47;13.50;13.50;9.00
69746;PMS7003;57018;50.278;19.134;2024-03-25T09:42:18;11.00;11.00;8.00
69746;PMS7003;57018;50.278;19.134;2024-03-25T09:44:55;10.50;10.50;7.50
69746;PMS7003;57018;50.278;19.134;2024-03-25T09:47:25;9.00;9.00;7.50
69746;PMS7003;57018;50.278;19.134;2024-03-25T09:49:55;12.00;12.00;7.00
69746;PMS7003;57018;50.278;19.134;2024-03-25T09:52:27;18.00;13.00;10.00
69746;PMS7003;57018;50.278;19.134;2024-03-25T09:54:57;15.00;14.00;10.00
69746;PMS7003;57018;50.278;19.134;2024-03-25T09:57:27;10.00;9.00;6.00
69746;PMS7003;57018;50.278;19.134;2024-03-25T09:59:58;11.00;11.00;9.00
69746;PMS7003;57018;50.278;19.134;2024-03-25T10:02:29;12.00;12.00;10.00
69746;PMS7003;57018;50.278;19.134;2024-03-25T10:05:00;14.00;11.00;10.00
69746;PMS7003;57018;50.278;19.134;2024-03-25T10:07:31;9.50;9.00;7.50
69746;PMS7003;57018;50.278;19.134;2024-03-25T10:10:04;11.00;11.00;8.50
69746;PMS7003;57018;50.278;19.134;2024-03-25T10:12:37;12.67;11.67;8.00
69746;PMS7003;57018;50.278;19.134;2024-03-25T10:15:08;12.50;10.00;7.50
69746;PMS7003;57018;50.278;19.134;2024-03-25T10:17:42;13.33;12.33;9.67
69746;PMS7003;57018;50.278;19.134;2024-03-25T10:20:14;15.50;13.50;10.00
69746;PMS7003;57018;50.278;19.134;2024-03-25T10:22:45;21.00;18.00;14.00
69746;PMS7003;57018;50.278;19.134;2024-03-25T10:25:25;11.00;11.00;8.00
69746;PMS7003;57018;50.278;19.134;2024-03-25T10:27:56;10.33;10.33;8.33
69746;PMS7003;57018;50.278;19.134;2024-03-25T10:30:27;13.00;10.00;8.00
69746;PMS7003;57018;50.278;19.134;2024-03-25T10:33:01;10.50;9.00;6.00
69746;PMS7003;57018;50.278;19.134;2024-03-25T10:35:34;9.50;8.50;6.00
69746;PMS7003;57018;50.278;19.134;2024-03-25T10:38:05;13.50;12.50;9.50
69746;PMS7003;57018;50.278;19.134;2024-03-25T10:40:38;16.00;15.00;10.00
69746;PMS7003;57018;50.278;19.134;2024-03-25T10:43:10;11.50;10.50;8.00
69746;PMS7003;57018;50.278;19.134;2024-03-25T10:45:42;11.50;10.50;8.50
69746;PMS7003;57018;50.278;19.134;2024-03-25T10:48:15;13.50;8.75;8.00
69746;PMS7003;57018;50.278;19.134;2024-03-25T10:50:47;13.00;13.00;10.00
69746;PMS7003;57018;50.278;19.134;2024-03-25T10:53:19;14.00;12.00;9.00
69746;PMS7003;57018;50.278;19.134;2024-03-25T10:55:50;13.00;12.00;7.00
69746;PMS7003;57018;50.278;19.134;2024-03-25T10:58:22;8.67;7.33;4.33
69746;PMS7003;57018;50.278;19.134;2024-03-25T11:00:53;9.00;9.00;6.00
69746;PMS7003;57018;50.278;19.134;2024-03-25T11:03:23;10.50;10.50;7.00
69746;PMS7003;57018;50.278;19.134;2024-03-25T11:05:54;16.00;13.00;11.00
69746;PMS7003;57018;50.278;19.134;2024-03-25T11:08:30;17.50;17.50;12.50
69746;PMS7003;57018;50.278;19.134;2024-03-25T11:11:00;13.00;11.00;8.00
69746;PMS7003;57018;50.278;19.134;2024-03-25T11:13:31;15.00;13.50;9.50
69746;PMS7003;57018;50.278;19.134;2024-03-25T11:16:05;13.00;13.00;8.00
69746;PMS7003;57018;50.278;19.134;2024-03-25T11:18:36;12.00;10.00;8.00
69746;PMS7003;57018;50.278;19.134;2024-03-25T11:21:08;17.00;14.00;11.00
69746;PMS7003;57018;50.278;19.134;2024-03-25T11:23:40;4.50;4.50;2.50
69746;PMS7003;57018;50.278;19.134;2024-03-25T11:26:17;3.00;3.00;2.00
69746;PMS7003;57018;50.278;19.134;2024-03-25T11:28:49;5.00;5.00;2.00
69746;PMS7003;57018;50.278;19.134;2024-03-25T11:31:20;1.25;1.25;1.00
69746;PMS7003;57018;50.278;19.134;2024-03-25T11:33:53;4.00;4.00;3.00
69746;PMS7003;57018;50.278;19.134;2024-03-25T11:36:23;6.50;6.00;4.00
69746;PMS7003;57018;50.278;19.134;2024-03-25T11:38:59;6.00;5.00;3.50
69746;PMS7003;57018;50.278;19.134;2024-03-25T11:41:31;8.67;7.33;5.00
69746;PMS7003;57018;50.278;19.134;2024-03-25T11:44:02;13.00;11.67;8.33
69746;PMS7003;57018;50.278;19.134;2024-03-25T11:46:33;12.00;12.00;9.50
69746;PMS7003;57018;50.278;19.134;2024-03-25T11:49:06;17.50;16.50;12.50
69746;PMS7003;57018;50.278;19.134;2024-03-25T11:51:42;13.00;13.00;10.00
69746;PMS7003;57018;50.278;19.134;2024-03-25T11:54:13;13.00;12.00;9.50
69746;PMS7003;57018;50.278;19.134;2024-03-25T11:56:44;13.67;12.00;9.00
69746;PMS7003;57018;50.278;19.134;2024-03-25T11:59:14;13.75;12.75;10.00
69746;PMS7003;57018;50.278;19.134;2024-03-25T12:01:45;13.67;12.33;9.00
69746;PMS7003;57018;50.278;19.134;2024-03-25T12:04:17;13.00;8.50;6.00
69746;PMS7003;57018;50.278;19.134;2024-03-25T12:06:49;8.00;7.00;6.00
69746;PMS7003;57018;50.278;19.134;2024-03-25T12:09:23;7.00;7.00;5.00
69746;PMS7003;57018;50.278;19.134;2024-03-25T12:12:11;6.50;6.50;5.00
69746;PMS7003;57018;50.278;19.134;2024-03-25T12:14:41;8.50;8.50;6.50
69746;PMS7003;57018;50.278;19.134;2024-03-25T12:17:10;11.50;11.50;7.50
69746;PMS7003;57018;50.278;19.134;2024-03-25T12:19:41;9.00;9.00;8.00
69746;PMS7003;57018;50.278;19.134;2024-03-25T12:22:11;7.00;6.75;5.25
69746;PMS7003;57018;50.278;19.134;2024-03-25T12:24:41;9.00;9.00;6.00
69746;PMS7003;57018;50.278;19.134;2024-03-25T12:27:19;6.50;6.50;3.00
69746;PMS7003;57018;50.278;19.134;2024-03-25T12:29:57;3.00;3.00;2.00
69746;PMS7003;57018;50.278;19.134;2024-03-25T12:32:35;6.00;5.50;4.00
69746;PMS7003;57018;50.278;19.134;2024-03-25T12:35:10;7.00;5.00;5.00
69746;PMS7003;57018;50.278;19.134;2024-03-25T12:37:41;6.00;6.00;5.00
69746;PMS7003;57018;50.278;19.134;2024-03-25T12:40:13;15.50;14.00;10.50
69746;PMS7003;57018;50.278;19.134;2024-03-25T12:42:54;15.00;13.00;8.00
69746;PMS7003;57018;50.278;19.134;2024-03-25T12:45:24;16.00;13.67;11.00
69746;PMS7003;57018;50.278;19.134;2024-03-25T12:47:55;12.00;12.00;9.00
69746;PMS7003;57018;50.278;19.134;2024-03-25T12:50:25;16.67;16.00;10.33
69746;PMS7003;57018;50.278;19.134;2024-03-25T12:52:55;21.00;18.00;13.00
69746;PMS7003;57018;50.278;19.134;2024-03-25T12:55:25;21.00;16.50;11.75
69746;PMS7003;57018;50.278;19.134;2024-03-25T12:57:56;22.00;21.50;13.50
69746;PMS7003;57018;50.278;19.134;2024-03-25T13:00:26;24.00;20.00;15.00
69746;PMS7003;57018;50.278;19.134;2024-03-25T13:02:55;19.00;17.00;13.00
69746;PMS7003;57018;50.278;19.134;2024-03-25T13:05:25;17.67;17.00;10.00
69746;PMS7003;57018;50.278;19.134;2024-03-25T13:07:56;14.50;14.50;9.50
69746;PMS7003;57018;50.278;19.134;2024-03-25T13:10:26;14.00;11.67;8.00
69746;PMS7003;57018;50.278;19.134;2024-03-25T13:12:56;10.00;9.00;6.50
69746;PMS7003;57018;50.278;19.134;2024-03-25T13:15:29;6.67;6.00;4.00
69746;PMS7003;57018;50.278;19.134;2024-03-25T13:18:01;3.33;3.33;3.33
69746;PMS7003;57018;50.278;19.134;2024-03-25T13:20:31;3.33;3.33;3.00
69746;PMS7003;57018;50.278;19.134;2024-03-25T13:23:01;6.00;4.00;3.00
69746;PMS7003;57018;50.278;19.134;2024-03-25T13:25:32;5.00;5.00;3.00
69746;PMS7003;57018;50.278;19.134;2024-03-25T13:28:01;7.00;7.00;6.00
69746;PMS7003;57018;50.278;19.134;2024-03-25T13:30:32;4.00;4.00;2.00
69746;PMS7003;57018;50.278;19.134;2024-03-25T13:33:02;8.00;8.00;5.00
69746;PMS7003;57018;50.278;19.134;2024-03-25T13:35:33;7.00;7.00;5.50
69746;PMS7003;57018;50.278;19.134;2024-03-25T13:38:05;8.00;7.00;5.50
69746;PMS7003;57018;50.278;19.134;2024-03-25T13:40:35;7.50;7.50;6.00
69746;PMS7003;57018;50.278;19.134;2024-03-25T13:43:05;7.00;7.00;5.50
69746;PMS7003;57018;50.278;19.134;2024-03-25T13:45:36;7.00;7.00;6.00
69746;PMS7003;57018;50.278;19.134;2024-03-25T13:48:13;9.00;8.00;6.00
69746;PMS7003;57018;50.278;19.134;2024-03-25T13:50:43;6.67;6.67;5.00
69746;PMS7003;57018;50.278;19.134;2024-03-25T13:53:16;6.67;6.67;4.00
69746;PMS7003;57018;50.278;19.134;2024-03-25T13:55:46;8.00;8.00;6.00
69746;PMS7003;57018;50.278;19.134;2024-03-25T13:58:16;7.00;7.00;5.00
69746;PMS7003;57018;50.278;19.134;2024-03-25T14:00:46;8.00;7.00;6.00
69746;PMS7003;57018;50.278;19.134;2024-03-25T14:03:17;8.00;8.00;7.00
69746;PMS7003;57018;50.278;19.134;2024-03-25T14:05:47;7.00;7.00;5.00
69746;PMS7003;57018;50.278;19.134;2024-03-25T14:08:17;8.00;7.00;5.00
69746;PMS7003;57018;50.278;19.134;2024-03-25T14:10:56;7.00;6.00;4.00
69746;PMS7003;57018;50.278;19.134;2024-03-25T14:13:26;7.50;7.00;4.00
69746;PMS7003;57018;50.278;19.134;2024-03-25T14:15:57;4.00;4.00;3.00